createdAt,value
2023-08-01T00:00:04.981Z,49.7130
2023-08-01T00:01:07.194Z,49.7130
2023-08-01T00:02:09.367Z,49.7070
2023-08-01T00:03:11.570Z,49.7070
2023-08-01T00:04:13.696Z,49.7210
2023-08-01T00:05:15.819Z,49.6970
2023-08-01T00:06:17.963Z,49.6840
2023-08-01T00:07:20.081Z,49.6570
2023-08-01T00:08:22.138Z,49.6720
2023-08-01T00:09:24.269Z,49.6140
2023-08-01T00:10:26.379Z,49.6450
2023-08-01T00:11:28.512Z,49.6080
2023-08-01T00:12:30.702Z,49.6080
2023-08-01T00:13:32.853Z,49.5750
2023-08-01T00:14:35.055Z,49.5200
2023-08-01T00:15:37.200Z,49.5120
2023-08-01T00:16:39.696Z,49.4750
2023-08-01T00:17:41.566Z,49.4750
2023-08-01T00:18:41.533Z,49.4480
2023-08-01T00:19:43.682Z,49.4110
2023-08-01T00:20:45.823Z,49.3540
2023-08-01T00:21:48.084Z,49.3350
2023-08-01T00:22:50.184Z,49.3060
2023-08-01T00:23:52.277Z,49.2680
2023-08-01T00:24:54.438Z,49.2570
2023-08-01T00:25:56.620Z,49.2670
2023-08-01T00:26:58.774Z,49.2430
2023-08-01T00:28:01.002Z,49.2160
2023-08-01T00:29:03.102Z,49.2100
2023-08-01T00:30:05.264Z,49.2040
2023-08-01T00:31:07.520Z,49.2300
2023-08-01T00:32:09.626Z,49.2100
2023-08-01T00:33:11.776Z,49.1980
2023-08-01T00:34:13.999Z,49.1820
2023-08-01T00:35:16.163Z,49.1960
2023-08-01T00:36:18.359Z,49.1750
2023-08-01T00:37:20.603Z,49.1510
2023-08-01T00:38:22.851Z,49.1380
2023-08-01T00:39:25.007Z,49.1120
2023-08-01T00:40:27.177Z,49.1000
2023-08-01T00:41:29.378Z,49.0810
2023-08-01T00:42:31.557Z,49.0690
2023-08-01T00:43:33.760Z,49.0420
2023-08-01T00:44:35.916Z,49.0360
2023-08-01T00:45:38.168Z,49.0180
2023-08-01T00:46:40.580Z,49.0460
2023-08-01T00:47:42.569Z,49.0460
2023-08-01T00:48:42.615Z,49.0590
2023-08-01T00:49:44.789Z,49.0460
2023-08-01T00:50:47.006Z,49.0080
2023-08-01T00:51:49.177Z,49.0010
2023-08-01T00:52:51.431Z,48.9950
2023-08-01T00:53:53.730Z,48.9950
2023-08-01T00:54:55.825Z,48.9700
2023-08-01T00:55:58.043Z,48.9380
2023-08-01T00:57:00.246Z,48.9380
2023-08-01T00:58:02.429Z,48.9130
2023-08-01T00:59:04.679Z,48.8680
2023-08-01T01:00:06.803Z,48.8680
2023-08-01T01:01:08.980Z,48.8560
2023-08-01T01:02:11.189Z,48.8620
2023-08-01T01:03:13.472Z,48.8170
2023-08-01T01:04:15.602Z,48.7870
2023-08-01T01:05:17.743Z,48.7740
2023-08-01T01:06:19.883Z,48.7680
2023-08-01T01:07:22.058Z,48.7540
2023-08-01T01:08:24.249Z,48.7230
2023-08-01T01:09:24.256Z,48.7230
2023-08-01T01:10:26.391Z,48.6780
2023-08-01T01:11:28.596Z,48.6640
2023-08-01T01:12:30.787Z,48.6500
2023-08-01T01:13:32.891Z,48.6310
2023-08-01T01:14:35.051Z,48.6370
2023-08-01T01:15:37.136Z,48.6440
2023-08-01T01:16:39.501Z,48.6370
2023-08-01T01:17:41.494Z,48.6290
2023-08-01T01:18:43.597Z,48.6250
2023-08-01T01:19:45.886Z,48.6310
2023-08-01T01:21:08.998Z,48.6820
2023-08-01T01:22:09.535Z,48.6700
2023-08-01T01:23:11.617Z,48.6190
2023-08-01T01:24:13.818Z,48.5900
2023-08-01T01:25:15.946Z,48.5680
2023-08-01T01:26:18.113Z,48.5110
2023-08-01T01:27:20.317Z,48.4860
2023-08-01T01:28:22.530Z,48.4930
2023-08-01T01:29:24.655Z,48.4740
2023-08-01T01:30:26.856Z,48.4560
2023-08-01T01:31:29.109Z,48.4230
2023-08-01T01:32:31.270Z,48.4170
2023-08-01T01:33:33.419Z,48.4110
2023-08-01T01:34:35.635Z,48.3380
2023-08-01T01:35:37.840Z,48.3070
2023-08-01T01:36:40.319Z,48.2600
2023-08-01T01:37:42.161Z,48.2400
2023-08-01T01:38:44.356Z,48.2210
2023-08-01T01:39:46.539Z,48.1910
2023-08-01T01:40:46.623Z,48.1460
2023-08-01T01:41:48.772Z,48.1140
2023-08-01T01:42:50.956Z,48.1010
2023-08-01T01:43:53.139Z,48.0580
2023-08-01T01:44:55.287Z,48.0440
2023-08-01T01:45:57.568Z,48.0080
2023-08-01T01:46:59.677Z,47.9950
2023-08-01T01:48:01.838Z,47.9510
2023-08-01T01:49:03.961Z,48.0040
2023-08-01T01:50:06.112Z,48.0160
2023-08-01T01:51:08.289Z,48.1340
2023-08-01T01:52:10.461Z,48.1640
2023-08-01T01:53:12.608Z,48.2050
2023-08-01T01:54:14.773Z,48.2090
2023-08-01T01:55:16.969Z,48.1930
2023-08-01T01:56:19.134Z,48.1620
2023-08-01T01:57:21.273Z,48.0890
2023-08-01T01:58:23.434Z,48.0520
2023-08-01T01:59:25.584Z,48.0200
2023-08-01T02:00:27.766Z,48.0020
2023-08-01T02:01:29.926Z,47.9840
2023-08-01T02:02:32.150Z,47.9390
2023-08-01T02:03:34.320Z,47.8880
2023-08-01T02:04:36.539Z,47.8170
2023-08-01T02:05:38.691Z,47.7950
2023-08-01T02:06:41.201Z,47.7620
2023-08-01T02:07:43.058Z,47.7340
2023-08-01T02:08:45.261Z,47.7200
2023-08-01T02:09:47.453Z,47.7080
2023-08-01T02:10:49.613Z,47.6690
2023-08-01T02:11:51.800Z,47.6680
2023-08-01T02:12:53.874Z,47.6680
2023-08-01T02:13:53.848Z,47.6690
2023-08-01T02:14:55.950Z,47.6450
2023-08-01T02:15:58.110Z,47.6450
2023-08-01T02:17:00.246Z,47.6250
2023-08-01T02:18:02.336Z,47.6390
2023-08-01T02:19:04.422Z,47.6810
2023-08-01T02:20:06.574Z,47.6870
2023-08-01T02:21:08.730Z,47.7140
2023-08-01T02:22:10.935Z,47.7000
2023-08-01T02:23:14.559Z,47.7140
2023-08-01T02:24:15.144Z,47.7620
2023-08-01T02:25:17.289Z,47.7880
2023-08-01T02:26:19.497Z,47.7830
2023-08-01T02:27:21.648Z,47.7500
2023-08-01T02:28:23.756Z,47.7950
2023-08-01T02:29:25.863Z,47.8070
2023-08-01T02:30:27.969Z,47.7890
2023-08-01T02:31:30.120Z,47.7950
2023-08-01T02:32:32.371Z,47.7770
2023-08-01T02:33:34.553Z,47.7620
2023-08-01T02:34:36.681Z,47.7620
2023-08-01T02:35:38.910Z,47.7380
2023-08-01T02:36:41.363Z,47.7000
2023-08-01T02:37:43.348Z,47.6810
2023-08-01T02:38:45.506Z,47.6940
2023-08-01T02:39:45.598Z,47.6940
2023-08-01T02:40:47.849Z,47.7190
2023-08-01T02:41:50.137Z,47.6940
2023-08-01T02:42:52.304Z,47.7320
2023-08-01T02:43:54.528Z,47.7370
2023-08-01T02:44:56.767Z,47.7380
2023-08-01T02:45:59.036Z,47.7560
2023-08-01T02:47:01.240Z,47.7620
2023-08-01T02:48:03.520Z,47.7890
2023-08-01T02:49:05.667Z,47.8070
2023-08-01T02:50:07.896Z,47.8320
2023-08-01T02:51:10.130Z,47.9090
2023-08-01T02:52:10.120Z,47.9840
2023-08-01T02:53:12.310Z,48.0210
2023-08-01T02:54:14.429Z,48.0410
2023-08-01T02:55:16.603Z,48.0620
2023-08-01T02:56:18.784Z,48.1250
2023-08-01T02:57:21.033Z,48.1690
2023-08-01T02:58:23.233Z,48.2510
2023-08-01T02:59:25.405Z,48.3080
2023-08-01T03:00:27.565Z,48.3530
2023-08-01T03:01:29.825Z,48.3950
2023-08-01T03:02:32.067Z,48.4160
2023-08-01T03:03:34.252Z,48.4400
2023-08-01T03:04:46.482Z,48.4340
2023-08-01T03:05:38.672Z,48.4630
2023-08-01T03:06:41.096Z,48.4300
2023-08-01T03:07:43.079Z,48.3870
2023-08-01T03:08:45.307Z,48.3480
2023-08-01T03:09:47.479Z,48.3040
2023-08-01T03:10:47.543Z,48.2660
2023-08-01T03:11:49.747Z,48.1650
2023-08-01T03:12:51.923Z,48.1520
2023-08-01T03:13:54.225Z,48.1080
2023-08-01T03:14:56.345Z,48.0440
2023-08-01T03:15:58.596Z,47.9670
2023-08-01T03:17:00.794Z,47.9100
2023-08-01T03:18:03.056Z,47.8530
2023-08-01T03:19:05.281Z,47.7720
2023-08-01T03:20:07.472Z,47.6870
2023-08-01T03:21:09.722Z,47.6620
2023-08-01T03:22:11.946Z,47.5770
2023-08-01T03:23:14.177Z,47.5260
2023-08-01T03:24:16.430Z,47.4630
2023-08-01T03:25:16.467Z,47.4330
2023-08-01T03:26:18.640Z,47.4330
2023-08-01T03:27:20.800Z,47.3820
2023-08-01T03:28:23.033Z,47.3720
2023-08-01T03:29:25.234Z,47.3720
2023-08-01T03:30:27.396Z,47.3780
2023-08-01T03:31:29.564Z,47.3540
2023-08-01T03:32:31.790Z,47.3290
2023-08-01T03:33:33.983Z,47.3090
2023-08-01T03:34:36.271Z,47.2970
2023-08-01T03:35:38.448Z,47.2600
2023-08-01T03:36:40.904Z,47.2100
2023-08-01T03:37:42.858Z,47.2340
2023-08-01T03:38:45.051Z,47.2220
2023-08-01T03:39:47.277Z,47.2400
2023-08-01T03:40:49.457Z,47.1860
2023-08-01T03:41:51.683Z,47.1920
2023-08-01T03:42:51.698Z,47.1880
2023-08-01T03:43:53.921Z,47.1630
2023-08-01T03:44:56.055Z,47.1190
2023-08-01T03:45:58.269Z,47.1310
2023-08-01T03:47:00.329Z,47.1310
2023-08-01T03:48:02.531Z,47.1190
2023-08-01T03:49:04.595Z,47.1010
2023-08-01T03:50:06.740Z,47.0500
2023-08-01T03:51:08.876Z,47.0440
2023-08-01T03:52:11.058Z,47.0060
2023-08-01T03:53:13.229Z,46.9930
2023-08-01T03:54:15.405Z,46.9870
2023-08-01T03:55:17.595Z,46.9510
2023-08-01T03:56:19.667Z,46.9180
2023-08-01T03:57:21.831Z,46.9000
2023-08-01T03:58:23.978Z,46.8940
2023-08-01T03:59:26.155Z,46.8620
2023-08-01T04:00:28.308Z,46.8820
2023-08-01T04:01:30.450Z,46.8560
2023-08-01T04:02:32.554Z,46.8540
2023-08-01T04:03:34.703Z,46.8900
2023-08-01T04:04:36.818Z,46.8660
2023-08-01T04:05:38.985Z,46.8840
2023-08-01T04:06:41.470Z,46.9020
2023-08-01T04:07:41.120Z,46.9080
2023-08-01T04:08:43.223Z,46.9160
2023-08-01T04:09:45.360Z,46.9470
2023-08-01T04:10:45.380Z,46.9470
2023-08-01T04:11:47.500Z,47.0220
2023-08-01T04:12:49.657Z,47.0480
2023-08-01T04:13:51.768Z,47.1090
2023-08-01T04:16:15.583Z,47.2630
2023-08-01T04:17:17.542Z,47.2500
2023-08-01T04:18:19.634Z,47.3170
2023-08-01T04:19:21.793Z,47.3230
2023-08-01T04:20:23.951Z,47.3540
2023-08-01T04:21:26.159Z,47.3860
2023-08-01T04:22:28.405Z,47.4040
2023-08-01T04:23:30.571Z,47.4450
2023-08-01T04:24:32.764Z,47.5080
2023-08-01T04:25:34.995Z,47.5320
2023-08-01T04:26:37.317Z,47.5770
2023-08-01T04:27:37.291Z,47.6010
2023-08-01T04:28:39.585Z,47.6520
2023-08-01T04:29:47.040Z,47.7250
2023-08-01T04:30:49.323Z,47.8630
2023-08-01T04:31:49.309Z,48.1290
2023-08-01T04:32:51.483Z,48.3080
2023-08-01T04:33:53.695Z,48.4420
2023-08-01T04:34:55.897Z,48.5170
2023-08-01T04:35:58.157Z,48.6540
2023-08-01T04:36:58.363Z,48.7170
2023-08-01T04:38:00.457Z,48.7600
2023-08-01T04:39:02.680Z,48.8110
2023-08-01T04:40:04.879Z,48.8560
2023-08-01T04:41:07.083Z,48.8440
2023-08-01T04:42:09.322Z,48.8440
2023-08-01T04:43:11.522Z,48.8990
2023-08-01T04:44:13.695Z,48.9890
2023-08-01T04:45:15.908Z,49.0590
2023-08-01T04:46:18.236Z,49.1590
2023-08-01T04:47:20.369Z,49.1750
2023-08-01T04:48:22.498Z,49.1940
2023-08-01T04:49:24.697Z,49.1940
2023-08-01T04:50:26.928Z,49.2450
2023-08-01T04:51:29.091Z,49.2760
2023-08-01T04:52:31.301Z,49.3600
2023-08-01T04:53:33.488Z,49.4030
2023-08-01T04:54:35.708Z,49.4990
2023-08-01T04:55:37.851Z,49.5750
2023-08-01T04:56:38.052Z,49.6960
2023-08-01T04:57:40.131Z,49.7330
2023-08-01T04:58:42.279Z,49.7780
2023-08-01T04:59:44.467Z,49.8030
2023-08-01T05:00:46.637Z,49.7910
2023-08-01T05:01:48.768Z,49.7660
2023-08-01T05:02:49.079Z,49.7080
2023-08-01T05:03:51.052Z,49.7210
2023-08-01T05:04:53.221Z,49.6820
2023-08-01T05:05:55.427Z,49.6920
2023-08-01T05:06:57.618Z,49.7250
2023-08-01T05:07:59.854Z,49.7110
2023-08-01T05:09:02.036Z,49.6510
2023-08-01T05:10:04.233Z,49.6510
2023-08-01T05:11:06.386Z,49.7020
2023-08-01T05:12:08.540Z,49.7520
2023-08-01T05:13:10.743Z,49.7520
2023-08-01T05:14:12.897Z,49.7840
2023-08-01T05:15:15.061Z,49.8300
2023-08-01T05:16:17.223Z,49.8280
2023-08-01T05:17:19.441Z,49.8210
2023-08-01T05:18:21.588Z,49.8420
2023-08-01T05:19:23.673Z,49.8360
2023-08-01T05:20:25.827Z,49.8380
2023-08-01T05:21:28.012Z,49.8070
2023-08-01T05:22:30.162Z,49.8020
2023-08-01T05:23:32.430Z,49.7780
2023-08-01T05:24:34.517Z,49.7390
2023-08-01T05:25:36.745Z,49.7200
2023-08-01T05:26:39.162Z,49.6920
2023-08-01T05:27:41.157Z,49.6460
2023-08-01T05:28:43.467Z,49.5890
2023-08-01T05:29:43.491Z,49.5710
2023-08-01T05:30:45.733Z,49.5520
2023-08-01T05:31:47.887Z,49.5330
2023-08-01T05:32:50.159Z,49.5710
2023-08-01T05:34:19.851Z,49.6380
2023-08-01T05:35:20.278Z,49.5400
2023-08-01T05:36:22.409Z,49.4750
2023-08-01T05:37:24.483Z,49.5100
2023-08-01T05:38:26.564Z,49.5800
2023-08-01T05:39:28.625Z,49.6620
2023-08-01T05:40:30.646Z,49.6810
2023-08-01T05:41:32.733Z,49.6990
2023-08-01T05:42:34.873Z,49.6090
2023-08-01T05:43:36.990Z,49.5250
2023-08-01T05:44:39.060Z,49.4080
2023-08-01T05:45:41.158Z,49.3380
2023-08-01T05:46:43.687Z,49.2330
2023-08-01T05:47:46.940Z,49.1390
2023-08-01T05:48:46.422Z,49.2510
2023-08-01T05:49:48.616Z,49.3480
2023-08-01T05:50:50.686Z,49.3480
2023-08-01T05:51:52.817Z,49.4140
2023-08-01T05:52:54.991Z,49.4030
2023-08-01T05:53:57.151Z,49.3480
2023-08-01T05:54:59.427Z,49.3270
2023-08-01T05:56:01.485Z,49.3440
2023-08-01T05:57:03.571Z,49.4070
2023-08-01T05:58:05.738Z,49.4440
2023-08-01T05:59:07.950Z,49.4790
2023-08-01T06:00:10.187Z,49.4420
2023-08-01T06:01:12.373Z,49.4230
2023-08-01T06:02:14.514Z,49.4090
2023-08-01T06:03:16.766Z,49.3810
2023-08-01T06:04:19.068Z,49.3500
2023-08-01T06:05:21.109Z,49.3050
2023-08-01T06:06:23.239Z,49.2680
2023-08-01T06:07:25.442Z,49.2350
2023-08-01T06:08:27.645Z,49.2270
2023-08-01T06:09:27.707Z,49.2580
2023-08-01T06:10:29.920Z,49.3090
2023-08-01T06:11:32.120Z,49.3720
2023-08-01T06:12:34.318Z,49.4090
2023-08-01T06:13:36.527Z,49.4600
2023-08-01T06:14:38.724Z,49.5240
2023-08-01T06:15:40.958Z,49.5930
2023-08-01T06:16:43.506Z,49.6630
2023-08-01T06:17:45.442Z,49.7270
2023-08-01T06:18:47.564Z,49.7910
2023-08-01T06:19:47.613Z,49.8460
2023-08-01T06:20:49.833Z,49.9240
2023-08-01T06:21:51.956Z,49.9740
2023-08-01T06:22:54.152Z,50.0430
2023-08-01T06:23:56.332Z,50.1070
2023-08-01T06:24:58.524Z,50.2040
2023-08-01T06:26:00.762Z,50.2990
2023-08-01T06:27:02.920Z,50.3630
2023-08-01T06:28:05.137Z,50.3810
2023-08-01T06:29:07.320Z,50.4390
2023-08-01T06:30:09.539Z,50.5010
2023-08-01T06:31:11.751Z,50.5840
2023-08-01T06:32:13.969Z,50.6210
2023-08-01T06:33:16.184Z,50.6350
2023-08-01T06:34:18.324Z,50.7050
2023-08-01T06:35:18.377Z,50.7670
2023-08-01T06:36:20.670Z,50.8660
2023-08-01T06:37:22.744Z,50.9510
2023-08-01T06:38:24.977Z,51.0280
2023-08-01T06:39:27.163Z,51.1350
2023-08-01T06:40:29.379Z,51.2390
2023-08-01T06:41:31.607Z,51.3340
2023-08-01T06:42:33.767Z,51.4690
2023-08-01T06:43:35.961Z,51.5270
2023-08-01T06:44:38.186Z,51.6810
2023-08-01T06:45:38.237Z,51.8030
2023-08-01T06:46:40.854Z,51.8860
2023-08-01T06:47:42.732Z,51.9570
2023-08-01T06:48:44.850Z,52.0470
2023-08-01T06:49:47.069Z,52.0860
2023-08-01T06:50:49.264Z,52.1880
2023-08-01T06:51:51.516Z,52.2650
2023-08-01T06:52:53.669Z,52.3110
2023-08-01T06:53:55.847Z,52.2980
2023-08-01T06:54:58.057Z,52.2060
2023-08-01T06:57:15.433Z,52.0640
2023-08-01T06:58:17.584Z,51.9370
2023-08-01T06:59:19.703Z,51.8340
2023-08-01T07:00:21.840Z,51.7320
2023-08-01T07:01:24.041Z,51.6660
2023-08-01T07:02:26.150Z,51.6250
2023-08-01T07:03:28.266Z,51.5460
2023-08-01T07:04:30.422Z,51.4630
2023-08-01T07:05:32.611Z,51.4260
2023-08-01T07:06:34.782Z,51.3860
2023-08-01T07:07:37.026Z,51.4070
2023-08-01T07:08:40.125Z,51.4030
2023-08-01T07:09:41.338Z,51.4320
2023-08-01T07:10:43.487Z,51.4320
2023-08-01T07:11:45.638Z,51.4190
2023-08-01T07:12:47.858Z,51.4090
2023-08-01T07:13:49.983Z,51.3650
2023-08-01T07:14:52.117Z,51.3900
2023-08-01T07:15:54.355Z,51.3970
2023-08-01T07:16:56.424Z,51.4150
2023-08-01T07:17:58.632Z,51.4790
2023-08-01T07:19:00.708Z,51.5130
2023-08-01T07:20:02.868Z,51.5380
2023-08-01T07:21:05.015Z,51.5960
2023-08-01T07:22:07.178Z,51.6020
2023-08-01T07:23:09.367Z,51.6080
2023-08-01T07:24:11.529Z,51.6480
2023-08-01T07:25:13.060Z,51.6410
2023-08-01T07:26:13.733Z,51.6480
2023-08-01T07:27:15.822Z,51.6210
2023-08-01T07:28:18.008Z,51.5670
2023-08-01T07:29:20.026Z,51.5610
2023-08-01T07:30:22.148Z,51.5130
2023-08-01T07:31:24.281Z,51.4940
2023-08-01T07:32:26.382Z,51.4480
2023-08-01T07:33:28.468Z,51.4150
2023-08-01T07:34:30.701Z,51.3840
2023-08-01T07:35:32.875Z,51.3670
2023-08-01T07:36:34.996Z,51.3780
2023-08-01T07:37:37.140Z,51.3720
2023-08-01T07:38:39.325Z,51.3720
2023-08-01T07:39:41.458Z,51.2680
2023-08-01T07:40:43.632Z,51.2040
2023-08-01T07:41:45.809Z,51.1440
2023-08-01T07:42:48.006Z,51.0510
2023-08-01T07:43:50.180Z,50.9870
2023-08-01T07:44:52.352Z,50.9150
2023-08-01T07:45:52.396Z,50.8690
2023-08-01T07:46:54.559Z,50.8570
2023-08-01T07:47:56.742Z,50.8050
2023-08-01T07:48:58.937Z,50.7180
2023-08-01T07:50:01.098Z,50.7180
2023-08-01T07:51:03.293Z,50.6980
2023-08-01T07:52:05.467Z,50.6630
2023-08-01T07:53:07.663Z,50.6770
2023-08-01T07:54:09.968Z,50.6360
2023-08-01T07:55:12.071Z,50.6180
2023-08-01T07:56:14.165Z,50.5990
2023-08-01T07:57:16.306Z,50.5540
2023-08-01T07:58:18.445Z,50.5000
2023-08-01T07:59:20.608Z,50.5440
2023-08-01T08:00:22.708Z,50.5190
2023-08-01T08:01:24.919Z,50.4490
2023-08-01T08:02:27.007Z,50.4490
2023-08-01T08:03:29.282Z,50.4360
2023-08-01T08:04:31.452Z,50.4260
2023-08-01T08:05:33.661Z,50.3680
2023-08-01T08:06:35.825Z,50.3120
2023-08-01T08:07:38.022Z,50.2610
2023-08-01T08:08:40.217Z,50.2730
2023-08-01T08:09:42.475Z,50.2550
2023-08-01T08:10:44.588Z,50.2030
2023-08-01T08:11:46.765Z,50.1730
2023-08-01T08:12:48.922Z,50.1460
2023-08-01T08:13:49.003Z,50.1210
2023-08-01T08:14:51.296Z,50.0970
2023-08-01T08:15:53.426Z,50.0640
2023-08-01T08:16:55.629Z,50.0450
2023-08-01T08:17:57.828Z,50.0450
2023-08-01T08:19:00.020Z,50.0060
2023-08-01T08:20:02.237Z,49.9980
2023-08-01T08:21:04.432Z,49.9400
2023-08-01T08:22:06.629Z,49.8700
2023-08-01T08:23:08.845Z,49.8320
2023-08-01T08:24:11.032Z,49.8730
2023-08-01T08:25:13.319Z,50.6280
2023-08-01T08:26:15.509Z,50.5330
2023-08-01T08:27:17.742Z,50.3600
2023-08-01T08:28:20.015Z,50.0160
2023-08-01T08:29:20.049Z,50.1960
2023-08-01T08:30:22.346Z,50.2140
2023-08-01T08:31:24.503Z,50.4410
2023-08-01T08:32:26.682Z,50.4470
2023-08-01T08:33:28.835Z,50.7210
2023-08-01T08:34:31.084Z,50.8100
2023-08-01T08:35:33.434Z,50.4200
2023-08-01T08:36:35.470Z,50.4530
2023-08-01T08:37:37.575Z,50.3950
2023-08-01T08:38:39.702Z,50.3760
2023-08-01T08:39:41.853Z,50.3250
2023-08-01T08:40:44.044Z,50.1850
2023-08-01T08:41:46.174Z,50.2040
2023-08-01T08:42:48.398Z,50.1660
2023-08-01T08:43:50.607Z,50.0390
2023-08-01T08:44:50.679Z,50.0060
2023-08-01T08:45:52.909Z,50.0200
2023-08-01T08:46:55.124Z,49.9920
2023-08-01T08:47:57.294Z,49.9860
2023-08-01T08:48:59.489Z,49.9710
2023-08-01T08:50:01.678Z,49.9590
2023-08-01T08:51:03.892Z,49.9470
2023-08-01T08:52:06.067Z,49.8950
2023-08-01T08:53:08.280Z,49.8540
2023-08-01T08:54:10.488Z,49.8660
2023-08-01T08:55:12.695Z,49.8290
2023-08-01T08:56:14.871Z,49.7720
2023-08-01T08:57:16.982Z,49.7430
2023-08-01T08:58:19.091Z,49.7500
2023-08-01T08:59:21.185Z,49.7180
2023-08-01T09:00:23.408Z,49.7040
2023-08-01T09:01:25.559Z,49.6900
2023-08-01T09:02:27.605Z,49.6570
2023-08-01T09:03:29.780Z,49.6450
2023-08-01T09:04:31.910Z,49.6510
2023-08-01T09:05:34.002Z,49.6450
2023-08-01T09:06:36.183Z,49.6390
2023-08-01T09:07:38.333Z,49.6220
2023-08-01T09:08:40.547Z,49.6200
2023-08-01T09:09:42.683Z,49.6160
2023-08-01T09:10:44.847Z,49.6280
2023-08-01T09:11:47.068Z,49.8010
2023-08-01T09:12:49.213Z,49.6730
2023-08-01T09:13:51.463Z,49.6160
2023-08-01T09:14:53.606Z,49.6380
2023-08-01T09:15:55.825Z,49.6840
2023-08-01T09:16:58.068Z,49.6630
2023-08-01T09:18:00.219Z,49.6840
2023-08-01T09:19:02.362Z,49.6960
2023-08-01T09:20:04.527Z,49.6380
2023-08-01T09:21:06.729Z,49.6260
2023-08-01T09:22:08.871Z,49.5990
2023-08-01T09:23:11.024Z,49.5930
2023-08-01T09:24:13.211Z,49.5870
2023-08-01T09:25:15.374Z,49.5750
2023-08-01T09:26:17.500Z,49.5810
2023-08-01T09:27:19.837Z,49.5750
2023-08-01T09:28:21.917Z,49.5690
2023-08-01T09:29:24.109Z,49.5560
2023-08-01T09:30:26.273Z,49.5440
2023-08-01T09:31:30.466Z,49.5170
2023-08-01T09:32:30.686Z,49.5500
2023-08-01T09:33:30.692Z,49.5230
2023-08-01T09:34:34.601Z,49.5990
2023-08-01T09:35:35.115Z,49.5970
2023-08-01T09:36:37.199Z,49.5560
2023-08-01T09:37:39.433Z,49.5620
2023-08-01T09:38:41.417Z,49.5340
2023-08-01T09:39:43.559Z,49.4890
2023-08-01T09:40:45.692Z,49.4800
2023-08-01T09:41:47.836Z,49.4540
2023-08-01T09:42:50.030Z,49.3960
2023-08-01T09:43:52.143Z,49.3660
2023-08-01T09:44:54.289Z,49.4070
2023-08-01T09:45:56.598Z,49.4330
2023-08-01T09:46:58.539Z,49.4640
2023-08-01T09:48:00.765Z,49.4810
2023-08-01T09:49:02.841Z,49.4950
2023-08-01T09:50:05.020Z,49.6100
2023-08-01T09:51:07.174Z,49.6020
2023-08-01T09:52:09.318Z,49.5940
2023-08-01T09:53:11.496Z,49.6450
2023-08-01T09:54:13.668Z,50.0520
2023-08-01T09:55:15.803Z,50.6040
2023-08-01T09:56:17.954Z,50.8670
2023-08-01T09:57:20.066Z,50.8610
2023-08-01T09:58:22.265Z,51.2180
2023-08-01T09:59:24.356Z,51.2990
2023-08-01T10:00:26.446Z,51.3990
2023-08-01T10:01:28.576Z,51.5330
2023-08-01T10:02:30.725Z,51.4570
2023-08-01T10:03:32.953Z,51.4570
2023-08-01T10:04:34.960Z,51.7060
2023-08-01T10:05:37.037Z,50.8150
2023-08-01T10:06:39.518Z,50.5600
2023-08-01T10:07:41.209Z,51.4940
2023-08-01T10:08:43.365Z,51.2600
2023-08-01T10:09:43.291Z,51.4650
2023-08-01T10:10:45.420Z,51.2650
2023-08-01T10:11:47.536Z,51.2960
2023-08-01T10:12:49.707Z,50.6570
2023-08-01T10:13:51.889Z,50.7450
2023-08-01T10:14:53.977Z,50.9960
2023-08-01T10:15:56.134Z,50.7390
2023-08-01T10:16:58.430Z,50.8280
2023-08-01T10:18:00.518Z,51.0410
2023-08-01T10:19:02.664Z,51.3100
2023-08-01T10:20:04.890Z,51.0970
2023-08-01T10:21:06.980Z,51.2520
2023-08-01T10:22:09.154Z,51.4060
2023-08-01T10:23:11.343Z,51.2310
2023-08-01T10:24:13.520Z,51.0600
2023-08-01T10:25:15.596Z,51.1670
2023-08-01T10:26:17.707Z,51.0080
2023-08-01T10:27:21.996Z,51.2250
2023-08-01T10:28:19.802Z,51.1820
2023-08-01T10:29:22.021Z,50.7140
2023-08-01T10:30:24.141Z,50.8670
2023-08-01T10:31:26.335Z,51.1360
2023-08-01T10:32:28.449Z,51.1940
2023-08-01T10:33:30.611Z,50.7850
2023-08-01T10:34:32.841Z,51.1610
2023-08-01T10:35:35.022Z,50.8770
2023-08-01T10:36:37.154Z,50.6150
2023-08-01T10:37:39.341Z,50.6340
2023-08-01T10:38:41.511Z,50.8200
2023-08-01T10:39:43.720Z,50.6320
2023-08-01T10:40:45.839Z,50.3140
2023-08-01T10:41:48.053Z,50.1970
2023-08-01T10:42:50.231Z,50.2730
2023-08-01T10:43:52.450Z,50.2360
2023-08-01T10:44:54.729Z,50.2090
2023-08-01T10:45:56.863Z,50.1780
2023-08-01T10:46:59.027Z,50.4130
2023-08-01T10:48:01.226Z,50.3370
2023-08-01T10:49:03.397Z,50.1200
2023-08-01T10:50:05.640Z,50.0750
2023-08-01T10:51:07.776Z,50.0110
2023-08-01T10:52:09.989Z,50.0380
2023-08-01T10:53:10.064Z,50.0750
2023-08-01T10:54:12.229Z,50.0570
2023-08-01T10:55:14.558Z,50.0630
2023-08-01T10:56:16.611Z,50.0380
2023-08-01T10:57:18.780Z,50.0320
2023-08-01T10:58:20.989Z,50.0630
2023-08-01T10:59:23.181Z,50.0260
2023-08-01T11:00:25.445Z,50.0260
2023-08-01T11:01:27.676Z,49.9870
2023-08-01T11:02:29.928Z,49.9870
2023-08-01T11:03:31.965Z,50.0320
2023-08-01T11:04:34.046Z,50.0690
2023-08-01T11:05:36.210Z,50.0790
2023-08-01T11:06:38.391Z,50.0980
2023-08-01T11:07:40.477Z,50.0030
2023-08-01T11:08:42.667Z,50.0160
2023-08-01T11:09:44.825Z,49.9970
2023-08-01T11:10:47.027Z,50.0030
2023-08-01T11:11:49.210Z,49.9680
2023-08-01T11:12:51.441Z,49.9480
2023-08-01T11:13:53.628Z,49.9750
2023-08-01T11:14:55.815Z,49.9290
2023-08-01T11:15:58.049Z,49.9620
2023-08-01T11:17:00.876Z,49.9750
2023-08-01T11:18:02.336Z,49.9680
2023-08-01T11:19:04.465Z,49.9480
2023-08-01T11:20:06.630Z,49.9480
2023-08-01T11:21:08.769Z,49.8980
2023-08-01T11:22:10.924Z,49.9360
2023-08-01T11:23:13.059Z,49.8470
2023-08-01T11:24:15.179Z,49.7900
2023-08-01T11:25:15.157Z,49.7830
2023-08-01T11:26:17.321Z,49.8060
2023-08-01T11:27:19.462Z,49.8240
2023-08-01T11:28:21.611Z,49.8430
2023-08-01T11:29:23.746Z,49.7610
2023-08-01T11:30:25.883Z,49.7730
2023-08-01T11:31:28.158Z,49.7380
2023-08-01T11:32:30.274Z,49.7870
2023-08-01T11:33:32.356Z,49.7380
2023-08-01T11:34:34.560Z,49.7650
2023-08-01T11:35:36.668Z,49.7380
2023-08-01T11:36:39.067Z,49.7520
2023-08-01T11:37:40.984Z,49.7200
2023-08-01T11:38:43.138Z,49.7010
2023-08-01T11:39:45.297Z,49.6890
2023-08-01T11:40:47.520Z,49.7010
2023-08-01T11:41:49.755Z,49.7140
2023-08-01T11:42:51.948Z,49.7360
2023-08-01T11:43:54.122Z,49.6970
2023-08-01T11:44:56.299Z,49.6910
2023-08-01T11:45:58.497Z,49.6970
2023-08-01T11:47:00.801Z,49.6970
2023-08-01T11:48:02.905Z,49.6910
2023-08-01T11:49:05.024Z,49.7420
2023-08-01T11:50:07.308Z,49.7240
2023-08-01T11:51:09.415Z,49.7610
2023-08-01T11:52:11.662Z,49.7090
2023-08-01T11:53:13.825Z,49.6970
2023-08-01T11:54:13.932Z,49.6730
2023-08-01T11:55:16.058Z,49.6910
2023-08-01T11:56:18.252Z,49.7610
2023-08-01T11:57:20.596Z,49.7140
2023-08-01T11:58:22.653Z,49.7650
2023-08-01T11:59:24.887Z,49.7610
2023-08-01T12:00:27.093Z,49.7180
2023-08-01T12:01:29.273Z,49.7940
2023-08-01T12:02:31.545Z,49.8250
2023-08-01T12:03:33.688Z,49.8230
2023-08-01T12:04:35.803Z,49.8350
2023-08-01T12:05:38.046Z,49.8350
2023-08-01T12:06:40.671Z,49.8830
2023-08-01T12:07:42.315Z,49.8640
2023-08-01T12:08:44.442Z,49.8810
2023-08-01T12:09:46.596Z,49.8680
2023-08-01T12:10:48.803Z,49.8580
2023-08-01T12:11:51.001Z,49.8330
2023-08-01T12:12:53.294Z,49.8520
2023-08-01T12:13:55.257Z,49.8700
2023-08-01T12:14:57.329Z,49.9030
2023-08-01T12:15:59.496Z,50.0490
2023-08-01T12:16:59.423Z,50.1190
2023-08-01T12:18:01.639Z,50.0800
2023-08-01T12:19:03.715Z,49.9180
2023-08-01T12:20:05.900Z,49.8170
2023-08-01T12:21:08.009Z,49.8360
2023-08-01T12:22:10.193Z,49.8360
2023-08-01T12:23:12.382Z,49.8170
2023-08-01T12:24:14.526Z,49.8130
2023-08-01T12:25:16.677Z,49.8210
2023-08-01T12:26:18.853Z,49.9100
2023-08-01T12:27:21.008Z,49.8980
2023-08-01T12:28:23.188Z,50.1040
2023-08-01T12:29:25.362Z,50.4790
2023-08-01T12:30:27.507Z,50.7400
2023-08-01T12:31:29.715Z,50.4400
2023-08-01T12:32:31.889Z,51.0740
2023-08-01T12:33:34.833Z,50.8200